createdAt,value
2022-09-10T00:00:52.640Z,1.80
2022-09-10T00:03:22.304Z,1.75
2022-09-10T00:05:50.573Z,1.42
2022-09-10T00:08:20.255Z,2.00
2022-09-10T00:10:49.580Z,1.73
2022-09-10T00:13:19.288Z,2.13
2022-09-10T00:15:48.512Z,2.08
2022-09-10T00:18:17.753Z,1.90
2022-09-10T00:20:48.228Z,2.23
2022-09-10T00:23:17.215Z,1.95
2022-09-10T00:25:45.512Z,1.67
2022-09-10T00:28:13.833Z,1.65
2022-09-10T00:30:42.261Z,1.55
2022-09-10T00:33:10.940Z,1.90
2022-09-10T00:35:40.247Z,2.08
2022-09-10T00:38:10.389Z,2.13
2022-09-10T00:40:38.971Z,2.50
2022-09-10T00:43:08.449Z,2.95
2022-09-10T00:45:37.170Z,3.00
2022-09-10T00:48:07.445Z,3.17
2022-09-10T00:50:37.803Z,3.03
2022-09-10T00:53:08.583Z,3.63
2022-09-10T00:55:38.795Z,4.05
2022-09-10T00:58:08.543Z,3.63
2022-09-10T01:00:36.865Z,4.13
2022-09-10T01:03:08.333Z,3.55
2022-09-10T01:05:36.811Z,3.30
2022-09-10T01:08:06.700Z,3.47
2022-09-10T01:10:40.857Z,3.13
2022-09-10T01:13:23.281Z,3.10
2022-09-10T01:15:54.443Z,2.95
2022-09-10T01:18:31.527Z,3.13
2022-09-10T01:21:06.913Z,3.47
2022-09-10T01:23:57.469Z,2.90
2022-09-10T01:26:45.395Z,2.80
2022-09-10T01:29:19.244Z,2.90
2022-09-10T01:31:50.801Z,2.42
2022-09-10T01:34:21.076Z,2.50
2022-09-10T01:36:51.985Z,2.30
2022-09-10T01:39:21.788Z,1.85
2022-09-10T01:41:50.132Z,1.70
2022-09-10T01:44:33.473Z,1.65
2022-09-10T01:47:09.440Z,1.52
2022-09-10T01:49:40.824Z,1.35
2022-09-10T01:52:15.520Z,1.50
2022-09-10T01:54:48.159Z,1.88
2022-09-10T01:57:27.859Z,1.95
2022-09-10T01:59:59.989Z,1.50
2022-09-10T02:02:32.047Z,1.27
2022-09-10T02:05:00.914Z,1.67
2022-09-10T02:07:30.353Z,1.30
2022-09-10T02:09:59.260Z,1.58
2022-09-10T02:12:27.844Z,1.45
2022-09-10T02:14:57.402Z,1.85
2022-09-10T02:17:27.797Z,1.67
2022-09-10T02:20:00.643Z,1.63
2022-09-10T02:22:29.845Z,1.75
2022-09-10T02:24:58.055Z,1.90
2022-09-10T02:27:26.639Z,2.28
2022-09-10T02:29:55.375Z,2.33
2022-09-10T02:32:23.612Z,2.17
2022-09-10T02:34:51.897Z,2.05
2022-09-10T02:37:21.492Z,2.53
2022-09-10T02:39:50.051Z,2.42
2022-09-10T02:42:18.540Z,2.38
2022-09-10T02:44:47.975Z,2.22
2022-09-10T02:47:16.446Z,2.45
2022-09-10T02:49:48.136Z,2.50
2022-09-10T02:52:16.452Z,2.40
2022-09-10T02:54:46.035Z,2.60
2022-09-10T02:57:14.276Z,2.00
2022-09-10T02:59:42.684Z,2.75
2022-09-10T03:02:10.919Z,2.20
2022-09-10T03:04:39.679Z,2.28
2022-09-10T03:07:07.881Z,1.98
2022-09-10T03:09:36.269Z,2.17
2022-09-10T03:12:06.323Z,2.42
2022-09-10T03:14:34.605Z,2.35
2022-09-10T03:17:03.887Z,2.58
2022-09-10T03:19:32.308Z,2.95
2022-09-10T03:22:00.593Z,2.80
2022-09-10T03:24:29.001Z,4.03
2022-09-10T03:26:57.277Z,3.60
2022-09-10T03:29:30.094Z,4.00
2022-09-10T03:31:58.356Z,3.67
2022-09-10T03:34:26.703Z,3.72
2022-09-10T03:36:55.391Z,4.00
2022-09-10T03:39:23.620Z,3.45
2022-09-10T03:41:53.909Z,4.03
2022-09-10T03:44:22.455Z,3.90
2022-09-10T03:46:52.652Z,3.60
2022-09-10T03:49:21.701Z,4.22
2022-09-10T03:51:50.056Z,3.40
2022-09-10T03:54:19.040Z,3.90
2022-09-10T03:56:47.546Z,4.30
2022-09-10T03:59:15.900Z,3.65
2022-09-10T04:01:44.834Z,4.18
2022-09-10T04:04:14.943Z,4.28
2022-09-10T04:06:44.485Z,4.45
2022-09-10T04:09:12.986Z,4.47
2022-09-10T04:11:41.388Z,4.85
2022-09-10T04:14:10.054Z,4.28
2022-09-10T04:16:38.549Z,4.95
2022-09-10T04:19:08.974Z,5.05
2022-09-10T04:21:38.820Z,4.30
2022-09-10T04:24:09.649Z,4.68
2022-09-10T04:26:37.935Z,5.07
2022-09-10T04:29:06.244Z,5.13
2022-09-10T04:31:34.665Z,5.45
2022-09-10T04:34:02.981Z,4.93
2022-09-10T04:36:31.340Z,4.95
2022-09-10T04:39:00.961Z,4.95
2022-09-10T04:41:29.154Z,4.90
2022-09-10T04:43:57.524Z,5.03
2022-09-10T04:46:25.851Z,5.90
2022-09-10T04:48:54.175Z,5.05
2022-09-10T04:51:22.438Z,5.75
2022-09-10T04:53:50.670Z,5.80
2022-09-10T04:56:21.015Z,6.10
2022-09-10T04:58:49.526Z,5.97
2022-09-10T05:01:17.806Z,6.30
2022-09-10T05:03:46.076Z,5.95
2022-09-10T05:06:14.364Z,5.40
2022-09-10T05:08:42.564Z,5.72
2022-09-10T05:11:11.582Z,5.50
2022-09-10T05:13:41.603Z,5.38
2022-09-10T05:16:09.867Z,5.10
2022-09-10T05:18:38.263Z,5.05
2022-09-10T05:21:06.679Z,5.25
2022-09-10T05:23:34.949Z,5.10
2022-09-10T05:26:03.159Z,4.80
2022-09-10T05:28:31.420Z,4.68
2022-09-10T05:31:01.189Z,4.55
2022-09-10T05:33:29.408Z,4.15
2022-09-10T05:35:57.646Z,4.40
2022-09-10T05:38:26.653Z,4.63
2022-09-10T05:40:57.057Z,4.43
2022-09-10T05:43:25.328Z,4.40
2022-09-10T05:45:53.647Z,4.25
2022-09-10T05:48:23.314Z,4.45
2022-09-10T05:50:51.692Z,5.07
2022-09-10T05:53:19.920Z,4.05
2022-09-10T05:55:49.626Z,4.75
2022-09-10T05:58:18.020Z,4.70
2022-09-10T06:00:46.680Z,5.38
2022-09-10T06:03:14.939Z,5.07
2022-09-10T06:05:50.396Z,5.10
2022-09-10T06:08:18.642Z,5.38
2022-09-10T06:10:55.401Z,5.60
2022-09-10T06:13:23.665Z,4.63
2022-09-10T06:15:52.077Z,4.47
2022-09-10T06:18:20.493Z,5.30
2022-09-10T06:20:50.109Z,4.65
2022-09-10T06:23:18.615Z,4.68
2022-09-10T06:25:48.371Z,4.65
2022-09-10T06:28:16.554Z,3.92
2022-09-10T06:30:44.802Z,4.07
2022-09-10T06:33:13.193Z,4.45
2022-09-10T06:35:41.548Z,3.30
2022-09-10T06:38:11.237Z,2.60
2022-09-10T06:40:39.497Z,2.33
2022-09-10T06:43:32.175Z,2.45
2022-09-10T06:46:00.653Z,2.20
2022-09-10T06:48:47.912Z,2.60
2022-09-10T06:51:17.152Z,1.80
2022-09-10T06:53:47.656Z,1.60
2022-09-10T06:56:16.193Z,1.20
2022-09-10T06:58:44.468Z,1.10
2022-09-10T07:01:14.803Z,0.95
2022-09-10T07:03:44.002Z,0.90
2022-09-10T07:06:13.307Z,1.00
2022-09-10T07:08:41.566Z,0.95
2022-09-10T07:11:13.937Z,1.00
2022-09-10T07:13:43.131Z,1.02
2022-09-10T07:16:11.740Z,0.73
2022-09-10T07:18:40.186Z,0.75
2022-09-10T07:21:08.919Z,0.90
2022-09-10T07:23:39.030Z,0.80
2022-09-10T07:26:08.178Z,0.90
2022-09-10T07:28:38.111Z,0.73
2022-09-10T07:31:13.368Z,0.77
2022-09-10T07:33:41.694Z,0.80
2022-09-10T07:36:12.251Z,0.80
2022-09-10T07:38:40.848Z,0.90
2022-09-10T07:41:10.054Z,1.25
2022-09-10T07:43:40.083Z,1.17
2022-09-10T07:46:08.423Z,1.67
2022-09-10T07:48:37.426Z,2.72
2022-09-10T07:51:06.572Z,2.85
2022-09-10T07:53:34.805Z,4.05
2022-09-10T07:56:03.388Z,5.50
2022-09-10T07:58:32.199Z,6.00
2022-09-10T08:01:02.332Z,6.30
2022-09-10T08:03:31.921Z,6.57
2022-09-10T08:06:02.249Z,7.50
2022-09-10T08:08:31.709Z,8.38
2022-09-10T08:11:09.752Z,9.07
2022-09-10T08:13:41.164Z,9.50
2022-09-10T08:16:12.304Z,10.82
2022-09-10T08:18:41.029Z,10.38
2022-09-10T08:21:10.715Z,11.13
2022-09-10T08:23:39.746Z,10.30
2022-09-10T08:26:09.186Z,10.65
2022-09-10T08:28:37.763Z,10.93
2022-09-10T08:31:09.484Z,10.52
2022-09-10T08:33:39.773Z,8.30
2022-09-10T08:36:09.179Z,4.13
2022-09-10T08:38:38.671Z,3.10
2022-09-10T08:41:12.216Z,2.95
2022-09-10T08:43:43.792Z,2.80
2022-09-10T08:46:15.069Z,2.80
2022-09-10T08:48:47.436Z,2.70
2022-09-10T08:51:18.712Z,2.60
2022-09-10T08:53:51.929Z,2.67
2022-09-10T08:56:23.894Z,2.10
2022-09-10T08:58:55.088Z,2.50
2022-09-10T09:01:28.584Z,2.60
2022-09-10T09:04:01.622Z,2.30
2022-09-10T09:06:35.663Z,3.20
2022-09-10T09:09:05.338Z,2.70
2022-09-10T09:11:37.929Z,2.80
2022-09-10T09:14:11.970Z,2.78
2022-09-10T09:16:47.364Z,3.35
2022-09-10T09:19:23.266Z,3.55
2022-09-10T09:21:53.303Z,4.07
2022-09-10T09:24:25.600Z,4.47
2022-09-10T09:26:56.273Z,5.10
2022-09-10T09:29:27.348Z,5.93
2022-09-10T09:31:58.889Z,6.50
2022-09-10T09:34:33.091Z,6.13
2022-09-10T09:37:04.060Z,6.53
2022-09-10T09:39:34.986Z,5.53
2022-09-10T09:42:07.121Z,5.20
2022-09-10T09:44:38.824Z,5.20
2022-09-10T09:47:07.034Z,4.45
2022-09-10T09:49:36.789Z,4.53
2022-09-10T09:52:15.069Z,4.43
2022-09-10T09:55:13.420Z,4.55
2022-09-10T09:57:33.529Z,3.80
2022-09-10T10:00:18.266Z,4.10
2022-09-10T10:02:47.020Z,4.00
2022-09-10T10:05:26.877Z,3.78
2022-09-10T10:07:55.298Z,3.97
2022-09-10T10:10:25.256Z,4.35
2022-09-10T10:12:54.707Z,3.90
2022-09-10T10:15:36.457Z,3.35
2022-09-10T10:18:25.392Z,2.85
2022-09-10T10:21:07.431Z,3.50
2022-09-10T10:23:37.740Z,3.20
2022-09-10T10:26:17.330Z,3.63
2022-09-10T10:28:47.962Z,4.00
2022-09-10T10:31:16.439Z,3.92
2022-09-10T10:33:50.491Z,3.13
2022-09-10T10:36:24.204Z,2.47
2022-09-10T10:38:58.178Z,2.38
2022-09-10T10:41:43.496Z,2.25
2022-09-10T10:44:24.056Z,2.30
2022-09-10T10:46:56.089Z,1.98
2022-09-10T10:49:31.825Z,1.83
2022-09-10T10:52:05.792Z,2.30
2022-09-10T10:54:46.424Z,1.98
2022-09-10T10:57:21.484Z,2.30
2022-09-10T10:59:55.130Z,2.40
2022-09-10T11:02:29.199Z,2.13
2022-09-10T11:04:59.992Z,1.95
2022-09-10T11:07:31.157Z,2.03
2022-09-10T11:10:03.767Z,1.80
2022-09-10T11:12:34.814Z,1.60
2022-09-10T11:15:04.987Z,1.83
2022-09-10T11:17:39.302Z,1.75
2022-09-10T11:20:27.805Z,2.42
2022-09-10T11:23:01.083Z,1.92
2022-09-10T11:25:32.375Z,1.88
2022-09-10T11:28:06.150Z,1.88
2022-09-10T11:30:35.657Z,1.77
2022-09-10T11:33:07.488Z,1.90
2022-09-10T11:35:39.481Z,1.80
2022-09-10T11:38:12.879Z,1.60
2022-09-10T11:40:46.411Z,1.50
2022-09-10T11:43:16.140Z,1.55
2022-09-10T11:45:48.137Z,1.67
2022-09-10T11:48:19.920Z,1.45
2022-09-10T11:50:50.816Z,1.58
2022-09-10T11:53:21.862Z,1.10
2022-09-10T11:55:58.675Z,1.20
2022-09-10T11:58:32.477Z,1.27
2022-09-10T12:01:04.781Z,1.30
2022-09-10T12:03:52.042Z,1.20
2022-09-10T12:06:23.799Z,1.40
2022-09-10T12:08:56.896Z,1.50
2022-09-10T12:11:28.314Z,1.55
2022-09-10T12:13:57.410Z,1.40
2022-09-10T12:16:31.668Z,1.83
2022-09-10T12:19:01.419Z,1.30
2022-09-10T12:21:33.309Z,1.80
2022-09-10T12:24:02.467Z,1.70
2022-09-10T12:26:41.836Z,2.00
2022-09-10T12:29:26.733Z,1.60
2022-09-10T12:32:13.625Z,1.60
2022-09-10T12:34:42.336Z,1.98
2022-09-10T12:37:28.165Z,1.88
2022-09-10T12:40:15.256Z,1.35
2022-09-10T12:42:45.658Z,1.60
2022-09-10T12:45:14.028Z,1.77
2022-09-10T12:47:50.418Z,1.77
2022-09-10T12:50:20.906Z,2.00
2022-09-10T12:52:56.172Z,1.55
2022-09-10T12:55:29.169Z,1.42
2022-09-10T12:58:02.537Z,1.52
2022-09-10T13:00:35.959Z,1.60
2022-09-10T13:03:11.319Z,1.52
2022-09-10T13:05:48.840Z,1.60
2022-09-10T13:08:21.322Z,1.40
2022-09-10T13:10:51.034Z,1.73
2022-09-10T13:13:33.928Z,1.50
2022-09-10T13:16:02.942Z,1.38
2022-09-10T13:18:32.101Z,1.52
2022-09-10T13:21:00.355Z,1.70
2022-09-10T13:23:48.616Z,1.52
2022-09-10T13:26:48.512Z,1.77
2022-09-10T13:29:32.398Z,1.10
2022-09-10T13:32:03.305Z,1.42
2022-09-10T13:34:49.432Z,1.58
2022-09-10T13:37:32.416Z,1.40
2022-09-10T13:40:16.071Z,1.33
2022-09-10T13:42:54.873Z,1.50
2022-09-10T13:45:27.326Z,2.08
2022-09-10T13:48:02.274Z,1.50
2022-09-10T13:50:34.651Z,1.20
2022-09-10T13:53:05.820Z,1.35
2022-09-10T13:55:34.706Z,1.50
2022-09-10T13:58:08.311Z,2.00
2022-09-10T14:00:41.151Z,1.73
2022-09-10T14:03:16.042Z,1.55
2022-09-10T14:05:46.919Z,1.90
2022-09-10T14:08:17.685Z,1.50
2022-09-10T14:10:53.728Z,1.95
2022-09-10T14:13:25.227Z,1.85
2022-09-10T14:15:56.297Z,1.52
2022-09-10T14:18:25.708Z,1.45
2022-09-10T14:20:54.135Z,1.90
2022-09-10T14:23:22.376Z,2.15
2022-09-10T14:26:09.835Z,1.60
2022-09-10T14:28:49.737Z,1.20
2022-09-10T14:31:22.830Z,2.00
2022-09-10T14:33:51.109Z,1.83
2022-09-10T14:36:21.508Z,2.22
2022-09-10T14:38:57.674Z,1.70
2022-09-10T14:41:27.133Z,1.90
2022-09-10T14:44:10.646Z,1.65
2022-09-10T14:46:51.498Z,1.60
2022-09-10T14:49:20.590Z,1.30
2022-09-10T14:51:48.812Z,1.77
2022-09-10T14:54:17.149Z,1.45
2022-09-10T14:56:46.368Z,2.10
2022-09-10T14:59:16.297Z,1.63
2022-09-10T15:01:45.432Z,1.60
2022-09-10T15:04:16.510Z,1.55
2022-09-10T15:06:44.958Z,1.63
2022-09-10T15:09:13.959Z,1.85
2022-09-10T15:11:45.113Z,1.90
2022-09-10T15:14:15.740Z,1.45
2022-09-10T15:16:44.373Z,2.03
2022-09-10T15:19:12.772Z,1.77
2022-09-10T15:21:43.037Z,1.20
2022-09-10T15:24:12.898Z,1.77
2022-09-10T15:26:41.460Z,1.52
2022-09-10T15:29:09.974Z,1.52
2022-09-10T15:31:38.557Z,1.63
2022-09-10T15:34:07.986Z,1.65
2022-09-10T15:36:37.012Z,1.70
2022-09-10T15:39:06.942Z,1.65
2022-09-10T15:41:35.516Z,1.92
2022-09-10T15:44:04.126Z,1.90
2022-09-10T15:46:32.423Z,1.90
2022-09-10T15:49:00.699Z,1.60
2022-09-10T15:51:28.990Z,1.90
2022-09-10T15:53:58.415Z,1.75
2022-09-10T15:56:30.502Z,2.28
2022-09-10T15:58:59.830Z,1.42
2022-09-10T16:01:29.131Z,1.92
2022-09-10T16:03:58.865Z,1.60
2022-09-10T16:06:28.477Z,1.80
2022-09-10T16:08:57.691Z,1.73
2022-09-10T16:11:26.411Z,1.55
2022-09-10T16:13:56.140Z,1.48
2022-09-10T16:16:26.004Z,1.75
2022-09-10T16:18:55.170Z,2.00
2022-09-10T16:21:26.283Z,1.83
2022-09-10T16:23:55.320Z,2.03
2022-09-10T16:26:24.629Z,1.80
2022-09-10T16:28:53.427Z,2.03
2022-09-10T16:31:23.716Z,2.30
2022-09-10T16:33:55.010Z,1.92
2022-09-10T16:36:24.982Z,1.83
2022-09-10T16:38:54.178Z,1.80
2022-09-10T16:41:22.381Z,2.03
2022-09-10T16:43:50.979Z,2.50
2022-09-10T16:46:19.573Z,2.10
2022-09-10T16:48:52.652Z,2.20
2022-09-10T16:51:23.241Z,2.13
2022-09-10T16:53:56.690Z,2.03
2022-09-10T16:56:25.503Z,1.75
2022-09-10T16:58:53.919Z,1.95
2022-09-10T17:01:22.196Z,2.30
2022-09-10T17:03:52.219Z,2.22
2022-09-10T17:06:21.564Z,2.17
2022-09-10T17:08:50.078Z,2.25
2022-09-10T17:11:19.347Z,2.20
2022-09-10T17:13:48.098Z,2.60
2022-09-10T17:16:17.432Z,2.28
2022-09-10T17:18:46.114Z,2.35
2022-09-10T17:21:15.881Z,2.30
2022-09-10T17:23:46.457Z,2.78
2022-09-10T17:26:14.678Z,2.50
2022-09-10T17:28:43.017Z,2.50
2022-09-10T17:31:11.232Z,2.85
2022-09-10T17:33:39.671Z,3.05
2022-09-10T17:36:08.098Z,2.97
2022-09-10T17:38:37.864Z,2.72
2022-09-10T17:41:06.636Z,2.88
2022-09-10T17:43:36.754Z,2.10
2022-09-10T17:46:05.254Z,2.47
2022-09-10T17:48:34.512Z,3.05
2022-09-10T17:51:03.339Z,2.80
2022-09-10T17:53:32.244Z,4.47
2022-09-10T17:56:04.962Z,2.95
2022-09-10T17:58:33.602Z,2.72
2022-09-10T18:01:02.639Z,2.65
2022-09-10T18:03:31.501Z,4.07
2022-09-10T18:06:03.902Z,3.37
2022-09-10T18:08:33.299Z,3.67
2022-09-10T18:11:06.762Z,2.70
2022-09-10T18:13:35.439Z,2.75
2022-09-10T18:16:07.445Z,2.90
2022-09-10T18:18:35.983Z,3.10
2022-09-10T18:21:14.463Z,2.83
2022-09-10T18:23:44.141Z,2.90
2022-09-10T18:26:17.760Z,2.90
2022-09-10T18:28:46.616Z,2.78
2022-09-10T18:31:14.916Z,3.08
2022-09-10T18:33:43.238Z,3.25
2022-09-10T18:36:13.249Z,3.67
2022-09-10T18:38:41.991Z,3.40
2022-09-10T18:41:19.283Z,4.43
2022-09-10T18:43:47.620Z,4.18
2022-09-10T18:46:16.454Z,4.13
2022-09-10T18:48:46.810Z,4.07
2022-09-10T18:51:16.044Z,4.32
2022-09-10T18:53:45.478Z,4.43
2022-09-10T18:56:15.311Z,4.28
2022-09-10T18:58:49.531Z,3.83
2022-09-10T19:01:18.336Z,3.92
2022-09-10T19:03:47.536Z,4.18
2022-09-10T19:06:17.291Z,3.60
2022-09-10T19:08:48.929Z,3.38
2022-09-10T19:11:19.018Z,3.67
2022-09-10T19:13:52.608Z,3.90
2022-09-10T19:16:21.379Z,3.70
2022-09-10T19:18:51.113Z,4.45
2022-09-10T19:21:20.126Z,4.32
2022-09-10T19:23:49.544Z,4.18
2022-09-10T19:26:18.331Z,4.07
2022-09-10T19:28:47.861Z,4.95
2022-09-10T19:31:19.621Z,5.20
2022-09-10T19:33:48.475Z,5.05
2022-09-10T19:36:17.755Z,6.22
2022-09-10T19:38:46.925Z,5.60
2022-09-10T19:41:18.952Z,6.05
2022-09-10T19:43:47.782Z,6.38
2022-09-10T19:46:18.073Z,6.72
2022-09-10T19:48:47.798Z,5.72
2022-09-10T19:51:17.578Z,6.57
2022-09-10T19:53:45.933Z,6.65
2022-09-10T19:56:19.717Z,5.90
2022-09-10T19:58:49.745Z,5.35
2022-09-10T20:01:20.929Z,5.78
2022-09-10T20:03:50.824Z,4.75
2022-09-10T20:06:21.285Z,4.30
2022-09-10T20:08:50.310Z,4.70
2022-09-10T20:11:20.393Z,4.65
2022-09-10T20:13:49.186Z,4.68
2022-09-10T20:16:19.112Z,4.85
2022-09-10T20:18:47.384Z,4.80
2022-09-10T20:21:17.001Z,4.55
2022-09-10T20:23:46.282Z,4.07
2022-09-10T20:26:17.993Z,4.55
2022-09-10T20:28:47.183Z,4.32
2022-09-10T20:31:16.580Z,4.50
2022-09-10T20:33:46.426Z,4.07
2022-09-10T20:36:16.058Z,4.45
2022-09-10T20:38:48.555Z,4.18
2022-09-10T20:41:17.277Z,3.90
2022-09-10T20:43:45.661Z,3.90
2022-09-10T20:46:16.367Z,3.42
2022-09-10T20:48:49.300Z,3.30
2022-09-10T20:51:21.454Z,3.65
2022-09-10T20:53:51.677Z,3.42
2022-09-10T20:56:20.909Z,3.58
2022-09-10T20:58:49.581Z,3.80
2022-09-10T21:01:19.977Z,4.50
2022-09-10T21:03:57.932Z,4.00
2022-09-10T21:06:27.602Z,3.30
2022-09-10T21:08:57.807Z,4.47
2022-09-10T21:11:27.178Z,4.20
2022-09-10T21:13:56.927Z,3.85
2022-09-10T21:16:26.894Z,4.00
2022-09-10T21:18:58.141Z,4.18
2022-09-10T21:21:28.083Z,4.93
2022-09-10T21:23:57.224Z,4.70
2022-09-10T21:26:26.334Z,4.53
2022-09-10T21:28:55.946Z,4.88
2022-09-10T21:31:24.434Z,4.70
2022-09-10T21:33:53.206Z,4.90
2022-09-10T21:36:25.413Z,5.03
2022-09-10T21:38:54.596Z,5.30
2022-09-10T21:41:31.689Z,4.90
2022-09-10T21:44:00.671Z,5.25
2022-09-10T21:46:29.655Z,5.05
2022-09-10T21:48:59.456Z,5.72
2022-09-10T21:51:29.367Z,5.30
2022-09-10T21:53:59.209Z,5.22
2022-09-10T21:56:29.638Z,5.45
2022-09-10T21:58:59.664Z,5.70
2022-09-10T22:01:29.091Z,5.28
2022-09-10T22:03:58.187Z,6.00
2022-09-10T22:06:27.126Z,5.15
2022-09-10T22:08:58.364Z,6.03
2022-09-10T22:11:30.177Z,5.35
2022-09-10T22:14:01.010Z,5.40
2022-09-10T22:16:30.992Z,5.28
2022-09-10T22:19:00.283Z,5.03
2022-09-10T22:21:29.159Z,5.13
2022-09-10T22:23:58.931Z,5.47
2022-09-10T22:26:28.680Z,6.03
2022-09-10T22:28:59.232Z,5.30
2022-09-10T22:31:28.547Z,5.55
2022-09-10T22:33:58.964Z,5.32
2022-09-10T22:36:28.873Z,5.38
2022-09-10T22:38:59.720Z,5.32
2022-09-10T22:41:29.711Z,5.50
2022-09-10T22:43:59.554Z,5.65
2022-09-10T22:46:28.412Z,5.65
2022-09-10T22:48:57.293Z,5.85
2022-09-10T22:51:28.074Z,6.50
2022-09-10T22:53:57.115Z,6.72
2022-09-10T22:56:27.478Z,6.63
2022-09-10T22:58:56.443Z,6.15
2022-09-10T23:01:26.765Z,6.63
2022-09-10T23:03:56.820Z,6.43
2022-09-10T23:06:26.476Z,6.38
2022-09-10T23:08:56.284Z,6.20
2022-09-10T23:11:26.165Z,6.63
2022-09-10T23:13:57.515Z,7.15
2022-09-10T23:16:28.879Z,7.68
2022-09-10T23:18:58.137Z,6.45
2022-09-10T23:21:27.327Z,7.00
2022-09-10T23:23:56.893Z,6.50
2022-09-10T23:26:25.755Z,6.25
2022-09-10T23:28:54.736Z,6.15
2022-09-10T23:31:25.503Z,6.90
2022-09-10T23:33:55.572Z,6.25
2022-09-10T23:36:24.268Z,6.38
2022-09-10T23:38:52.457Z,6.45
2022-09-10T23:41:21.605Z,6.80
2022-09-10T23:43:49.833Z,6.85
2022-09-10T23:46:18.317Z,6.35
2022-09-10T23:48:49.292Z,6.22
2022-09-10T23:51:18.878Z,6.45
2022-09-10T23:53:47.996Z,6.10
2022-09-10T23:56:17.625Z,6.70
2022-09-10T23:58:46.260Z,6.70
